createdAt,value
2023-05-14T00:02:13.586Z,16.79
2023-05-14T00:04:41.237Z,16.71
2023-05-14T00:07:08.253Z,16.62
2023-05-14T00:09:37.064Z,16.58
2023-05-14T00:12:05.503Z,16.59
2023-05-14T00:14:32.513Z,16.61
2023-05-14T00:17:00.028Z,16.62
2023-05-14T00:19:27.490Z,16.63
2023-05-14T00:21:54.539Z,16.63
2023-05-14T00:24:21.585Z,16.61
2023-05-14T00:26:48.602Z,16.60
2023-05-14T00:29:15.675Z,16.55
2023-05-14T00:31:42.750Z,16.50
2023-05-14T00:34:10.029Z,16.44
2023-05-14T00:36:37.052Z,16.38
2023-05-14T00:39:05.050Z,16.36
2023-05-14T00:41:32.069Z,16.38
2023-05-14T00:43:59.107Z,16.39
2023-05-14T00:46:26.456Z,16.43
2023-05-14T00:48:53.861Z,16.44
2023-05-14T00:51:21.561Z,16.47
2023-05-14T00:53:48.604Z,16.49
2023-05-14T00:56:15.633Z,16.52
2023-05-14T00:58:42.613Z,16.56
2023-05-14T01:01:09.750Z,16.60
2023-05-14T01:03:36.943Z,16.64
2023-05-14T01:06:12.499Z,16.65
2023-05-14T01:08:54.917Z,16.64
2023-05-14T01:11:28.714Z,16.64
2023-05-14T01:14:17.176Z,16.65
2023-05-14T01:16:44.989Z,16.62
2023-05-14T01:19:21.827Z,16.59
2023-05-14T01:21:48.824Z,16.51
2023-05-14T01:24:17.104Z,16.43
2023-05-14T01:26:44.102Z,16.40
2023-05-14T01:29:19.551Z,16.40
2023-05-14T01:31:47.408Z,16.40
2023-05-14T01:34:14.624Z,16.40
2023-05-14T01:36:41.661Z,16.39
2023-05-14T01:39:11.630Z,16.37
2023-05-14T01:41:39.815Z,16.34
2023-05-14T01:44:06.835Z,16.30
2023-05-14T01:46:34.082Z,16.23
2023-05-14T01:49:01.383Z,16.18
2023-05-14T01:51:28.610Z,16.11
2023-05-14T01:53:55.714Z,16.05
2023-05-14T01:56:23.925Z,16.01
2023-05-14T01:58:51.392Z,15.96
2023-05-14T02:01:18.509Z,15.90
2023-05-14T02:03:45.895Z,15.85
2023-05-14T02:06:12.925Z,15.80
2023-05-14T02:08:40.166Z,15.74
2023-05-14T02:11:07.247Z,15.68
2023-05-14T02:13:34.326Z,15.64
2023-05-14T02:16:01.764Z,15.63
2023-05-14T02:18:28.942Z,15.62
2023-05-14T02:20:56.372Z,15.61
2023-05-14T02:23:34.088Z,15.57
2023-05-14T02:26:06.462Z,15.45
2023-05-14T02:28:33.505Z,15.39
2023-05-14T02:31:03.399Z,15.39
2023-05-14T02:33:30.611Z,15.38
2023-05-14T02:35:57.727Z,15.30
2023-05-14T02:38:26.014Z,15.17
2023-05-14T02:40:53.175Z,15.06
2023-05-14T02:43:20.226Z,14.93
2023-05-14T02:45:47.457Z,14.85
2023-05-14T02:48:14.533Z,14.85
2023-05-14T02:50:41.772Z,14.90
2023-05-14T02:53:08.978Z,14.97
2023-05-14T02:55:36.529Z,15.05
2023-05-14T02:58:03.673Z,15.04
2023-05-14T03:00:33.017Z,15.01
2023-05-14T03:03:00.828Z,15.05
2023-05-14T03:05:28.289Z,15.14
2023-05-14T03:07:55.362Z,15.21
2023-05-14T03:10:23.282Z,15.29
2023-05-14T03:12:50.657Z,15.36
2023-05-14T03:15:17.825Z,15.43
2023-05-14T03:17:44.882Z,15.51
2023-05-14T03:20:13.377Z,15.59
2023-05-14T03:22:42.889Z,15.65
2023-05-14T03:25:10.186Z,15.73
2023-05-14T03:27:37.197Z,15.81
2023-05-14T03:30:05.611Z,15.91
2023-05-14T03:32:32.790Z,16.03
2023-05-14T03:34:59.848Z,16.17
2023-05-14T03:37:26.871Z,16.30
2023-05-14T03:39:55.443Z,16.38
2023-05-14T03:42:22.442Z,16.49
2023-05-14T03:44:49.660Z,16.60
2023-05-14T03:47:16.755Z,16.69
2023-05-14T03:49:43.966Z,16.77
2023-05-14T03:52:11.861Z,16.86
2023-05-14T03:54:38.982Z,16.98
2023-05-14T03:57:06.099Z,17.12
2023-05-14T03:59:33.106Z,17.25
2023-05-14T04:02:00.152Z,17.41
2023-05-14T04:04:27.285Z,17.58
2023-05-14T04:06:54.869Z,17.77
2023-05-14T04:09:21.906Z,17.96
2023-05-14T04:11:49.120Z,18.15
2023-05-14T04:14:16.174Z,18.34
2023-05-14T04:16:44.224Z,18.53
2023-05-14T04:19:11.378Z,18.73
2023-05-14T04:21:39.112Z,18.94
2023-05-14T04:24:06.462Z,19.16
2023-05-14T04:26:33.569Z,19.40
2023-05-14T04:29:03.182Z,19.64
2023-05-14T04:31:31.887Z,19.89
2023-05-14T04:33:59.066Z,20.06
2023-05-14T04:36:28.794Z,20.17
2023-05-14T04:38:56.449Z,20.27
2023-05-14T04:41:23.493Z,20.36
2023-05-14T04:43:52.307Z,20.50
2023-05-14T04:46:20.114Z,20.63
2023-05-14T04:48:47.244Z,20.76
2023-05-14T04:51:14.869Z,20.89
2023-05-14T04:53:41.856Z,20.97
2023-05-14T04:56:08.959Z,21.09
2023-05-14T04:58:35.999Z,21.26
2023-05-14T05:01:05.328Z,21.50
2023-05-14T05:03:32.592Z,21.60
2023-05-14T05:05:59.613Z,21.65
2023-05-14T05:08:26.689Z,21.72
2023-05-14T05:10:53.896Z,21.80
2023-05-14T05:13:20.903Z,21.90
2023-05-14T05:15:47.997Z,21.94
2023-05-14T05:18:15.098Z,21.97
2023-05-14T05:20:42.184Z,21.99
2023-05-14T05:23:09.245Z,22.00
2023-05-14T05:25:36.342Z,22.00
2023-05-14T05:28:03.438Z,22.06
2023-05-14T05:30:30.610Z,22.11
2023-05-14T05:32:57.946Z,22.17
2023-05-14T05:35:25.321Z,22.21
2023-05-14T05:37:52.440Z,22.23
2023-05-14T05:40:20.056Z,22.27
2023-05-14T05:42:47.109Z,22.31
2023-05-14T05:45:14.121Z,22.37
2023-05-14T05:47:41.811Z,22.45
2023-05-14T05:50:09.973Z,22.54
2023-05-14T05:52:37.120Z,22.59
2023-05-14T05:55:04.701Z,22.66
2023-05-14T05:57:32.050Z,22.73
2023-05-14T05:59:59.305Z,22.81
2023-05-14T06:02:26.586Z,22.90
2023-05-14T06:04:55.784Z,22.97
2023-05-14T06:07:23.544Z,23.05
2023-05-14T06:09:51.157Z,23.16
2023-05-14T06:12:21.335Z,23.29
2023-05-14T06:14:48.479Z,23.44
2023-05-14T06:17:19.064Z,23.57
2023-05-14T06:19:46.100Z,23.69
2023-05-14T06:22:13.209Z,23.81
2023-05-14T06:24:40.229Z,23.96
2023-05-14T06:27:07.878Z,24.15
2023-05-14T06:29:34.986Z,24.15
2023-05-14T06:32:04.004Z,24.15
2023-05-14T06:34:31.721Z,24.21
2023-05-14T06:36:59.022Z,24.31
2023-05-14T06:39:26.255Z,24.40
2023-05-14T06:41:53.532Z,24.46
2023-05-14T06:44:21.625Z,24.54
2023-05-14T06:46:50.521Z,24.63
2023-05-14T06:49:20.074Z,24.66
2023-05-14T06:51:49.565Z,24.70
2023-05-14T06:54:17.348Z,24.81
2023-05-14T06:56:44.728Z,24.92
2023-05-14T06:59:11.918Z,25.05
2023-05-14T07:01:41.215Z,25.16
2023-05-14T07:04:09.087Z,25.29
2023-05-14T07:06:36.761Z,25.50
2023-05-14T07:09:04.076Z,25.59
2023-05-14T07:11:31.198Z,25.65
2023-05-14T07:13:58.723Z,25.70
2023-05-14T07:16:26.362Z,25.71
2023-05-14T07:18:53.781Z,25.72
2023-05-14T07:21:20.979Z,25.69
2023-05-14T07:23:47.960Z,25.77
2023-05-14T07:26:15.105Z,25.85
2023-05-14T07:28:42.364Z,25.88
2023-05-14T07:31:09.671Z,25.96
2023-05-14T07:33:36.745Z,26.08
2023-05-14T07:36:03.895Z,26.14
2023-05-14T07:38:31.374Z,26.19
2023-05-14T07:40:58.762Z,26.23
2023-05-14T07:43:26.189Z,26.24
2023-05-14T07:45:53.219Z,26.29
2023-05-14T07:48:20.323Z,26.39
2023-05-14T07:50:49.164Z,26.50
2023-05-14T07:53:16.944Z,26.60
2023-05-14T07:55:45.510Z,26.69
2023-05-14T07:58:12.710Z,26.75
2023-05-14T08:00:40.480Z,26.81
2023-05-14T08:03:08.247Z,26.87
2023-05-14T08:05:35.238Z,26.93
2023-05-14T08:08:02.850Z,26.98
2023-05-14T08:10:30.114Z,27.03
2023-05-14T08:12:57.435Z,27.12
2023-05-14T08:15:27.719Z,27.12
2023-05-14T08:18:03.656Z,27.13
2023-05-14T08:20:33.950Z,27.17
2023-05-14T08:23:01.750Z,27.18
2023-05-14T08:25:30.053Z,27.18
2023-05-14T08:28:03.231Z,27.21
2023-05-14T08:30:32.676Z,27.25
2023-05-14T08:33:00.270Z,27.32
2023-05-14T08:35:27.410Z,27.36
2023-05-14T08:37:54.953Z,27.45
2023-05-14T08:40:22.291Z,27.53
2023-05-14T08:42:52.553Z,27.63
2023-05-14T08:45:22.790Z,27.74
2023-05-14T08:47:52.170Z,27.79
2023-05-14T08:50:23.722Z,27.74
2023-05-14T08:52:54.042Z,27.74
2023-05-14T08:55:21.611Z,27.76
2023-05-14T08:57:51.277Z,27.78
2023-05-14T09:00:19.454Z,27.71
2023-05-14T09:02:46.585Z,27.56
2023-05-14T09:05:13.824Z,27.45
2023-05-14T09:07:41.731Z,27.37
2023-05-14T09:10:09.922Z,27.32
2023-05-14T09:12:36.932Z,27.31
2023-05-14T09:15:05.155Z,27.33
2023-05-14T09:17:32.846Z,27.32
2023-05-14T09:20:00.932Z,27.25
2023-05-14T09:22:29.830Z,27.21
2023-05-14T09:25:12.464Z,27.15
2023-05-14T09:27:40.094Z,27.04
2023-05-14T09:30:14.350Z,26.98
2023-05-14T09:32:46.307Z,26.94
2023-05-14T09:35:24.046Z,26.96
2023-05-14T09:37:53.751Z,26.96
2023-05-14T09:40:22.859Z,26.97
2023-05-14T09:42:50.758Z,27.02
2023-05-14T09:45:17.992Z,27.13
2023-05-14T09:47:46.115Z,27.22
2023-05-14T09:50:13.365Z,27.29
2023-05-14T09:52:40.541Z,27.39
2023-05-14T09:55:08.454Z,27.50
2023-05-14T09:57:35.946Z,27.61
2023-05-14T10:00:03.233Z,27.70
2023-05-14T10:02:41.625Z,27.79
2023-05-14T10:05:09.717Z,27.88
2023-05-14T10:07:43.205Z,27.94
2023-05-14T10:10:15.311Z,28.03
2023-05-14T10:12:42.491Z,28.20
2023-05-14T10:15:27.412Z,28.36
2023-05-14T10:18:01.021Z,28.60
2023-05-14T10:20:28.306Z,28.79
2023-05-14T10:22:55.461Z,28.95
2023-05-14T10:25:22.693Z,29.09
2023-05-14T10:27:53.999Z,29.26
2023-05-14T10:30:34.787Z,29.40
2023-05-14T10:33:08.913Z,29.45
2023-05-14T10:35:56.244Z,29.56
2023-05-14T10:38:27.564Z,29.65
2023-05-14T10:41:04.619Z,29.78
2023-05-14T10:43:38.722Z,29.89
2023-05-14T10:46:07.461Z,30.00
2023-05-14T10:48:34.888Z,30.01
2023-05-14T10:51:02.879Z,30.01
2023-05-14T10:53:39.233Z,29.95
2023-05-14T10:56:16.925Z,29.91
2023-05-14T10:58:45.074Z,29.73
2023-05-14T11:01:13.345Z,29.55
2023-05-14T11:03:45.383Z,29.38
2023-05-14T11:06:14.148Z,29.23
2023-05-14T11:08:41.777Z,29.08
2023-05-14T11:11:09.290Z,29.00
2023-05-14T11:13:36.465Z,28.97
2023-05-14T11:16:21.139Z,28.91
2023-05-14T11:18:55.054Z,28.84
2023-05-14T11:21:36.789Z,28.84
2023-05-14T11:24:05.682Z,28.80
2023-05-14T11:26:34.681Z,28.73
2023-05-14T11:29:03.104Z,28.70
2023-05-14T11:31:32.288Z,28.74
2023-05-14T11:34:01.179Z,28.91
2023-05-14T11:36:28.260Z,29.13
2023-05-14T11:38:55.280Z,29.33
2023-05-14T11:41:23.459Z,29.54
2023-05-14T11:43:51.243Z,29.63
2023-05-14T11:46:18.990Z,29.68
2023-05-14T11:48:46.254Z,29.80
2023-05-14T11:51:13.297Z,29.88
2023-05-14T11:53:40.397Z,29.87
2023-05-14T11:56:09.681Z,29.82
2023-05-14T11:58:37.468Z,29.82
2023-05-14T12:01:05.039Z,29.87
2023-05-14T12:03:32.449Z,29.87
2023-05-14T12:06:00.577Z,29.75
2023-05-14T12:08:29.306Z,29.55
2023-05-14T12:10:56.625Z,29.40
2023-05-14T12:13:27.582Z,29.35
2023-05-14T12:15:56.643Z,29.35
2023-05-14T12:18:32.412Z,29.37
2023-05-14T12:21:03.413Z,29.43
2023-05-14T12:23:31.127Z,29.52
2023-05-14T12:26:08.940Z,29.59
2023-05-14T12:28:38.285Z,29.71
2023-05-14T12:31:05.967Z,29.77
2023-05-14T12:33:33.379Z,29.78
2023-05-14T12:36:19.902Z,29.81
2023-05-14T12:38:49.585Z,29.87
2023-05-14T12:41:18.454Z,29.93
2023-05-14T12:43:46.348Z,29.98
2023-05-14T12:46:13.396Z,29.93
2023-05-14T12:48:41.982Z,29.74
2023-05-14T12:51:09.054Z,29.63
2023-05-14T12:53:36.254Z,29.64
2023-05-14T12:56:03.312Z,29.76
2023-05-14T12:58:30.291Z,29.89
2023-05-14T13:00:57.304Z,29.99
2023-05-14T13:03:24.426Z,29.96
2023-05-14T13:05:52.790Z,29.97
2023-05-14T13:08:21.878Z,30.10
2023-05-14T13:10:49.014Z,30.20
2023-05-14T13:13:16.240Z,30.32
2023-05-14T13:15:43.414Z,30.51
2023-05-14T13:18:10.611Z,30.57
2023-05-14T13:20:37.693Z,30.61
2023-05-14T13:23:04.741Z,30.67
2023-05-14T13:25:33.581Z,30.69
2023-05-14T13:28:01.295Z,30.50
2023-05-14T13:30:28.409Z,30.29
2023-05-14T13:32:57.552Z,30.27
2023-05-14T13:35:24.971Z,30.17
2023-05-14T13:37:52.270Z,30.14
2023-05-14T13:40:19.558Z,30.31
2023-05-14T13:42:47.469Z,30.52
2023-05-14T13:45:14.649Z,30.70
2023-05-14T13:47:41.797Z,30.81
2023-05-14T13:50:09.299Z,30.86
2023-05-14T13:52:36.759Z,30.79
2023-05-14T13:55:04.372Z,30.70
2023-05-14T13:57:31.412Z,30.58
2023-05-14T13:59:58.446Z,30.43
2023-05-14T14:02:25.714Z,30.20
2023-05-14T14:04:52.824Z,29.99
2023-05-14T14:07:21.309Z,29.71
2023-05-14T14:09:48.470Z,29.43
2023-05-14T14:12:15.545Z,29.24
2023-05-14T14:14:42.607Z,29.09
2023-05-14T14:17:12.383Z,28.92
2023-05-14T14:19:41.488Z,28.72
2023-05-14T14:22:08.744Z,28.46
2023-05-14T14:24:35.923Z,28.31
2023-05-14T14:27:03.235Z,28.20
2023-05-14T14:29:31.471Z,28.12
2023-05-14T14:31:58.853Z,27.93
2023-05-14T14:34:26.039Z,27.68
2023-05-14T14:36:53.081Z,27.46
2023-05-14T14:39:20.090Z,27.31
2023-05-14T14:41:47.900Z,27.36
2023-05-14T14:44:15.097Z,27.40
2023-05-14T14:46:43.252Z,27.43
2023-05-14T14:49:10.442Z,27.49
2023-05-14T14:51:37.588Z,27.57
2023-05-14T14:54:07.500Z,27.65
2023-05-14T14:56:34.709Z,27.85
2023-05-14T14:59:02.568Z,28.14
2023-05-14T15:01:30.517Z,28.53
2023-05-14T15:03:57.821Z,28.94
2023-05-14T15:06:26.327Z,29.21
2023-05-14T15:08:54.589Z,29.27
2023-05-14T15:11:22.535Z,29.04
2023-05-14T15:13:49.767Z,28.62
2023-05-14T15:16:16.930Z,28.44
2023-05-14T15:18:44.055Z,28.67
2023-05-14T15:21:11.182Z,29.18
2023-05-14T15:23:38.302Z,29.80
2023-05-14T15:26:05.928Z,30.35
2023-05-14T15:28:33.421Z,30.69
2023-05-14T15:31:03.388Z,30.88
2023-05-14T15:33:33.058Z,31.21
2023-05-14T15:36:02.219Z,31.61
2023-05-14T15:38:29.483Z,31.75
2023-05-14T15:40:56.601Z,31.47
2023-05-14T15:43:23.717Z,31.04
2023-05-14T15:45:50.942Z,30.52
2023-05-14T15:48:18.320Z,30.05
2023-05-14T15:50:48.976Z,29.62
2023-05-14T15:53:17.598Z,29.20
2023-05-14T15:55:45.140Z,28.88
2023-05-14T15:58:13.101Z,28.54
2023-05-14T16:00:40.520Z,28.31
2023-05-14T16:03:07.728Z,28.21
2023-05-14T16:05:34.854Z,28.29
2023-05-14T16:08:01.833Z,28.45
2023-05-14T16:10:28.926Z,28.68
2023-05-14T16:12:56.166Z,29.12
2023-05-14T16:15:23.221Z,29.64
2023-05-14T16:17:50.648Z,30.02
2023-05-14T16:20:18.545Z,30.25
2023-05-14T16:22:45.805Z,30.20
2023-05-14T16:25:12.893Z,29.86
2023-05-14T16:27:39.958Z,29.39
2023-05-14T16:30:07.787Z,29.05
2023-05-14T16:32:34.875Z,28.97
2023-05-14T16:35:03.126Z,28.94
2023-05-14T16:37:30.338Z,28.78
2023-05-14T16:39:57.359Z,28.59
2023-05-14T16:42:25.028Z,28.41
2023-05-14T16:44:52.082Z,28.32
2023-05-14T16:47:19.213Z,28.28
2023-05-14T16:49:46.484Z,28.23
2023-05-14T16:52:14.040Z,28.17
2023-05-14T16:54:43.452Z,28.01
2023-05-14T16:57:11.030Z,27.76
2023-05-14T16:59:40.764Z,27.49
2023-05-14T17:02:08.820Z,27.22
2023-05-14T17:04:38.934Z,26.90
2023-05-14T17:07:06.961Z,26.56
2023-05-14T17:09:36.968Z,26.19
2023-05-14T17:12:04.729Z,25.86
2023-05-14T17:14:32.155Z,25.53
2023-05-14T17:16:59.321Z,25.26
2023-05-14T17:19:26.757Z,25.02
2023-05-14T17:21:53.858Z,24.78
2023-05-14T17:24:21.639Z,24.56
2023-05-14T17:26:49.192Z,24.37
2023-05-14T17:29:20.869Z,24.20
2023-05-14T17:31:49.426Z,24.03
2023-05-14T17:34:17.983Z,23.85
2023-05-14T17:36:47.493Z,23.67
2023-05-14T17:39:16.885Z,23.51
2023-05-14T17:41:44.234Z,23.37
2023-05-14T17:44:12.689Z,23.25
2023-05-14T17:46:44.466Z,23.14
2023-05-14T17:49:12.207Z,23.04
2023-05-14T17:51:39.392Z,22.92
2023-05-14T17:54:09.346Z,22.73
2023-05-14T17:56:38.871Z,22.58
2023-05-14T17:59:06.507Z,22.48
2023-05-14T18:01:43.201Z,22.40
2023-05-14T18:07:19.392Z,22.21
2023-05-14T18:09:47.301Z,22.12
2023-05-14T18:12:16.417Z,22.06
2023-05-14T18:14:48.330Z,21.99
2023-05-14T18:17:19.145Z,21.91
2023-05-14T18:19:48.598Z,21.82
2023-05-14T18:22:22.604Z,21.74
2023-05-14T18:24:52.708Z,21.66
2023-05-14T18:27:23.066Z,21.58
2023-05-14T18:30:01.454Z,21.48
2023-05-14T18:32:32.157Z,21.35
2023-05-14T18:35:01.998Z,21.26
2023-05-14T18:37:30.473Z,21.19
2023-05-14T18:40:02.084Z,21.11
2023-05-14T18:42:30.301Z,21.07
2023-05-14T18:45:00.601Z,21.04
2023-05-14T18:47:32.641Z,21.02
2023-05-14T18:50:07.578Z,21.00
2023-05-14T18:52:35.326Z,20.97
2023-05-14T18:55:04.036Z,20.95
2023-05-14T18:57:34.955Z,20.91
2023-05-14T19:00:02.326Z,20.86
2023-05-14T19:02:30.308Z,20.81
2023-05-14T19:04:58.533Z,20.74
2023-05-14T19:07:26.147Z,20.66
2023-05-14T19:10:00.472Z,20.57
2023-05-14T19:12:38.215Z,20.53
2023-05-14T19:15:06.716Z,20.52
2023-05-14T19:17:33.857Z,20.51
2023-05-14T19:20:02.344Z,20.47
2023-05-14T19:22:29.487Z,20.45
2023-05-14T19:24:57.197Z,20.42
2023-05-14T19:27:24.670Z,20.40
2023-05-14T19:29:55.585Z,20.36
2023-05-14T19:32:41.001Z,20.32
2023-05-14T19:35:09.455Z,20.29
2023-05-14T19:37:37.009Z,20.27
2023-05-14T19:40:06.680Z,20.23
2023-05-14T19:42:36.366Z,20.20
2023-05-14T19:45:05.254Z,20.17
2023-05-14T19:47:37.614Z,20.13
2023-05-14T19:50:09.911Z,20.10
2023-05-14T19:52:37.785Z,20.07
2023-05-14T19:55:05.898Z,20.03
2023-05-14T19:57:34.175Z,20.00
2023-05-14T20:00:02.741Z,19.96
2023-05-14T20:02:37.948Z,19.91
2023-05-14T20:05:13.304Z,19.85
2023-05-14T20:07:40.692Z,19.81
2023-05-14T20:10:08.490Z,19.78
2023-05-14T20:12:35.515Z,19.77
2023-05-14T20:15:03.737Z,19.75
2023-05-14T20:17:31.282Z,19.72
2023-05-14T20:20:00.144Z,19.69
2023-05-14T20:22:27.334Z,19.66
2023-05-14T20:24:56.022Z,19.63
2023-05-14T20:27:26.578Z,19.59
2023-05-14T20:29:55.578Z,19.55
2023-05-14T20:32:26.127Z,19.50
2023-05-14T20:34:53.161Z,19.45
2023-05-14T20:37:20.232Z,19.39
2023-05-14T20:39:47.717Z,19.34
2023-05-14T20:42:16.542Z,19.29
2023-05-14T20:44:43.678Z,19.24
2023-05-14T20:47:10.786Z,19.18
2023-05-14T20:49:39.054Z,19.11
2023-05-14T20:52:06.398Z,19.00
2023-05-14T20:54:35.255Z,18.89
2023-05-14T20:57:03.909Z,18.77
2023-05-14T20:59:31.084Z,18.66
2023-05-14T21:01:58.390Z,18.51
2023-05-14T21:04:26.644Z,18.35
2023-05-14T21:06:54.273Z,18.18
2023-05-14T21:09:23.449Z,18.03
2023-05-14T21:11:50.629Z,17.94
2023-05-14T21:14:17.635Z,17.86
2023-05-14T21:16:44.655Z,17.82
2023-05-14T21:19:17.210Z,17.80
2023-05-14T21:21:44.443Z,17.78
2023-05-14T21:24:12.644Z,17.77
2023-05-14T21:26:40.602Z,17.76
2023-05-14T21:29:09.750Z,17.75
2023-05-14T21:31:36.769Z,17.73
2023-05-14T21:34:03.801Z,17.70
2023-05-14T21:36:32.182Z,17.66
2023-05-14T21:38:59.436Z,17.62
2023-05-14T21:41:26.516Z,17.58
2023-05-14T21:43:53.577Z,17.54
2023-05-14T21:46:20.612Z,17.50
2023-05-14T21:48:47.854Z,17.48
2023-05-14T21:51:15.238Z,17.47
2023-05-14T21:53:42.485Z,17.45
2023-05-14T21:56:09.886Z,17.43
2023-05-14T21:58:37.056Z,17.41
2023-05-14T22:01:04.813Z,17.36
2023-05-14T22:03:32.115Z,17.25
2023-05-14T22:05:59.360Z,17.13
2023-05-14T22:08:27.410Z,17.05
2023-05-14T22:10:55.487Z,17.03
2023-05-14T22:13:22.535Z,17.05
2023-05-14T22:15:51.349Z,17.06
2023-05-14T22:18:22.646Z,17.08
2023-05-14T22:20:49.710Z,17.07
2023-05-14T22:23:16.757Z,17.03
2023-05-14T22:25:43.955Z,16.97
2023-05-14T22:28:10.955Z,16.88
2023-05-14T22:30:37.945Z,16.79
2023-05-14T22:33:05.106Z,16.74
2023-05-14T22:35:32.127Z,16.75
2023-05-14T22:37:59.163Z,16.78
2023-05-14T22:40:26.217Z,16.80
2023-05-14T22:42:53.246Z,16.80
2023-05-14T22:45:20.289Z,16.80
2023-05-14T22:47:47.413Z,16.78
2023-05-14T22:50:14.507Z,16.75
2023-05-14T22:52:41.721Z,16.74
2023-05-14T22:55:10.648Z,16.73
2023-05-14T22:57:37.791Z,16.71
2023-05-14T23:00:05.407Z,16.69
2023-05-14T23:02:33.910Z,16.64
2023-05-14T23:05:01.518Z,16.59
2023-05-14T23:07:28.540Z,16.52
2023-05-14T23:09:55.699Z,16.44
2023-05-14T23:12:22.748Z,16.36
2023-05-14T23:14:49.781Z,16.30
2023-05-14T23:17:17.506Z,16.26
2023-05-14T23:19:44.578Z,16.19
2023-05-14T23:22:11.552Z,16.14
2023-05-14T23:24:38.708Z,16.07
2023-05-14T23:27:05.750Z,15.98
2023-05-14T23:29:34.836Z,15.88
2023-05-14T23:32:01.903Z,15.82
2023-05-14T23:34:28.950Z,15.76
2023-05-14T23:36:55.924Z,15.69
2023-05-14T23:39:23.022Z,15.61
2023-05-14T23:41:50.096Z,15.52
2023-05-14T23:44:17.089Z,15.46
2023-05-14T23:46:44.132Z,15.44
2023-05-14T23:49:13.486Z,15.42
2023-05-14T23:51:40.469Z,15.40
2023-05-14T23:54:07.496Z,15.39
2023-05-14T23:56:46.768Z,15.38
2023-05-14T23:59:14.221Z,15.36
